sensor_id;sensor_type;location;lat;lon;timestamp;pressure;altitude;pressure_sealevel;temperature;humidity
10462;BME280;5278;42.656;23.374;2023-03-18T00:01:48;95055.53;;;3.91;82.88
10462;BME280;5278;42.656;23.374;2023-03-18T00:04:15;95049.22;;;3.95;82.54
10462;BME280;5278;42.656;23.374;2023-03-18T00:06:42;95045.59;;;3.98;82.72
10462;BME280;5278;42.656;23.374;2023-03-18T00:09:09;95043.25;;;3.95;83.13
10462;BME280;5278;42.656;23.374;2023-03-18T00:11:37;95044.63;;;3.99;82.70
10462;BME280;5278;42.656;23.374;2023-03-18T00:14:05;95040.81;;;3.93;82.48
10462;BME280;5278;42.656;23.374;2023-03-18T00:16:33;95035.91;;;3.90;83.38
10462;BME280;5278;42.656;23.374;2023-03-18T00:19:02;95024.38;;;3.84;83.58
10462;BME280;5278;42.656;23.374;2023-03-18T00:21:29;95032.53;;;3.89;84.28
10462;BME280;5278;42.656;23.374;2023-03-18T00:23:57;95018.56;;;3.82;83.31
10462;BME280;5278;42.656;23.374;2023-03-18T00:26:26;95024.75;;;3.80;83.07
10462;BME280;5278;42.656;23.374;2023-03-18T00:28:54;95025.81;;;3.77;82.67
10462;BME280;5278;42.656;23.374;2023-03-18T00:31:22;95001.03;;;5.97;100.00
10462;BME280;5278;42.656;23.374;2023-03-18T00:33:49;95005.06;;;7.29;100.00
10462;BME280;5278;42.656;23.374;2023-03-18T00:36:17;95004.78;;;8.64;72.13
10462;BME280;5278;42.656;23.374;2023-03-18T00:38:51;94989.66;;;9.86;61.13
10462;BME280;5278;42.656;23.374;2023-03-18T00:41:22;94891.03;;;10.18;54.13
10462;BME280;5278;42.656;23.374;2023-03-18T00:43:50;94982.19;;;11.03;50.87
10462;BME280;5278;42.656;23.374;2023-03-18T00:46:20;94979.22;;;10.75;48.48
10462;BME280;5278;42.656;23.374;2023-03-18T00:48:47;94981.69;;;9.79;49.55
10462;BME280;5278;42.656;23.374;2023-03-18T00:51:17;94987.66;;;8.72;51.94
10462;BME280;5278;42.656;23.374;2023-03-18T00:53:46;94983.75;;;7.81;54.91
10462;BME280;5278;42.656;23.374;2023-03-18T00:56:15;94975.25;;;7.08;57.91
10462;BME280;5278;42.656;23.374;2023-03-18T00:58:42;94982.44;;;6.49;61.39
10462;BME280;5278;42.656;23.374;2023-03-18T01:01:10;94988.78;;;5.99;63.94
10462;BME280;5278;42.656;23.374;2023-03-18T01:03:38;94981.47;;;5.56;67.22
10462;BME280;5278;42.656;23.374;2023-03-18T01:06:07;94986.44;;;5.19;69.72
10462;BME280;5278;42.656;23.374;2023-03-18T01:08:37;94980.25;;;4.82;70.97
10462;BME280;5278;42.656;23.374;2023-03-18T01:11:05;94979.22;;;4.63;72.65
10462;BME280;5278;42.656;23.374;2023-03-18T01:13:33;94980.56;;;4.27;73.82
10462;BME280;5278;42.656;23.374;2023-03-18T01:16:01;94979.28;;;4.12;74.63
10462;BME280;5278;42.656;23.374;2023-03-18T01:18:28;95002.13;;;3.95;75.66
10462;BME280;5278;42.656;23.374;2023-03-18T01:20:55;94974.13;;;3.71;76.86
10462;BME280;5278;42.656;23.374;2023-03-18T01:23:23;94979.66;;;3.55;77.64
10462;BME280;5278;42.656;23.374;2023-03-18T01:25:52;94982.78;;;3.38;78.79
10462;BME280;5278;42.656;23.374;2023-03-18T01:28:20;94980.34;;;3.36;79.56
10462;BME280;5278;42.656;23.374;2023-03-18T01:30:48;94963.59;;;3.21;79.22
10462;BME280;5278;42.656;23.374;2023-03-18T01:33:15;94978.97;;;3.21;79.93
10462;BME280;5278;42.656;23.374;2023-03-18T01:35:45;94973.97;;;3.20;80.43
10462;BME280;5278;42.656;23.374;2023-03-18T01:38:14;94966.16;;;3.21;80.62
10462;BME280;5278;42.656;23.374;2023-03-18T01:40:41;94957.53;;;3.11;81.02
10462;BME280;5278;42.656;23.374;2023-03-18T01:43:14;94976.66;;;3.18;80.67
10462;BME280;5278;42.656;23.374;2023-03-18T01:45:46;94965.94;;;3.13;80.10
10462;BME280;5278;42.656;23.374;2023-03-18T01:48:15;94969.34;;;3.14;79.83
10462;BME280;5278;42.656;23.374;2023-03-18T01:50:45;94967.00;;;3.11;80.50
10462;BME280;5278;42.656;23.374;2023-03-18T01:53:14;94971.44;;;3.09;80.08
10462;BME280;5278;42.656;23.374;2023-03-18T01:55:44;94968.88;;;3.09;80.76
10462;BME280;5278;42.656;23.374;2023-03-18T01:58:17;94970.84;;;3.05;80.73
10462;BME280;5278;42.656;23.374;2023-03-18T02:00:48;94964.69;;;3.08;81.41
10462;BME280;5278;42.656;23.374;2023-03-18T02:03:18;94963.75;;;3.09;81.50
10462;BME280;5278;42.656;23.374;2023-03-18T02:05:47;94963.75;;;3.09;82.58
10462;BME280;5278;42.656;23.374;2023-03-18T02:08:15;94960.47;;;3.07;82.64
10462;BME280;5278;42.656;23.374;2023-03-18T02:10:43;94946.56;;;3.09;82.23
10462;BME280;5278;42.656;23.374;2023-03-18T02:13:12;94957.56;;;3.00;81.76
10462;BME280;5278;42.656;23.374;2023-03-18T02:15:45;94956.19;;;2.96;82.09
10462;BME280;5278;42.656;23.374;2023-03-18T02:18:16;94961.41;;;2.94;83.68
10462;BME280;5278;42.656;23.374;2023-03-18T02:20:55;94957.09;;;2.95;83.78
10462;BME280;5278;42.656;23.374;2023-03-18T02:23:37;94954.53;;;2.95;84.19
10462;BME280;5278;42.656;23.374;2023-03-18T02:26:12;94958.28;;;2.91;83.46
10462;BME280;5278;42.656;23.374;2023-03-18T02:28:45;94962.03;;;2.87;84.04
10462;BME280;5278;42.656;23.374;2023-03-18T02:31:15;94968.66;;;2.89;83.57
10462;BME280;5278;42.656;23.374;2023-03-18T02:33:43;94965.06;;;2.92;82.73
10462;BME280;5278;42.656;23.374;2023-03-18T02:36:12;94937.59;;;2.72;81.75
10462;BME280;5278;42.656;23.374;2023-03-18T02:38:41;94965.72;;;2.94;81.39
10462;BME280;5278;42.656;23.374;2023-03-18T02:41:13;94932.78;;;2.78;81.50
10462;BME280;5278;42.656;23.374;2023-03-18T02:43:40;94962.75;;;2.89;80.50
10462;BME280;5278;42.656;23.374;2023-03-18T02:46:20;94953.63;;;2.85;81.00
10462;BME280;5278;42.656;23.374;2023-03-18T02:48:50;94956.44;;;2.82;81.83
10462;BME280;5278;42.656;23.374;2023-03-18T02:51:17;94955.06;;;2.78;81.45
10462;BME280;5278;42.656;23.374;2023-03-18T02:53:45;94955.53;;;2.72;81.20
10462;BME280;5278;42.656;23.374;2023-03-18T02:56:12;94951.78;;;2.65;81.73
10462;BME280;5278;42.656;23.374;2023-03-18T02:58:40;94950.19;;;2.52;81.89
10462;BME280;5278;42.656;23.374;2023-03-18T03:01:07;94952.19;;;2.49;83.05
10462;BME280;5278;42.656;23.374;2023-03-18T03:03:37;94960.19;;;2.44;83.26
10462;BME280;5278;42.656;23.374;2023-03-18T03:06:04;94946.59;;;2.44;82.75
10462;BME280;5278;42.656;23.374;2023-03-18T03:08:32;94975.59;;;2.44;83.53
10462;BME280;5278;42.656;23.374;2023-03-18T03:10:59;94960.69;;;2.38;84.38
10462;BME280;5278;42.656;23.374;2023-03-18T03:13:26;94963.47;;;2.35;83.53
10462;BME280;5278;42.656;23.374;2023-03-18T03:15:53;94965.69;;;2.29;84.05
10462;BME280;5278;42.656;23.374;2023-03-18T03:18:21;94967.44;;;2.28;84.69
10462;BME280;5278;42.656;23.374;2023-03-18T03:20:50;94965.69;;;2.29;84.71
10462;BME280;5278;42.656;23.374;2023-03-18T03:23:19;94961.97;;;2.33;84.78
10462;BME280;5278;42.656;23.374;2023-03-18T03:25:47;94968.81;;;2.21;84.54
10462;BME280;5278;42.656;23.374;2023-03-18T03:28:15;94975.34;;;2.25;84.46
10462;BME280;5278;42.656;23.374;2023-03-18T03:30:44;94975.25;;;2.27;84.98
10462;BME280;5278;42.656;23.374;2023-03-18T03:33:12;94964.16;;;2.15;84.97
10462;BME280;5278;42.656;23.374;2023-03-18T03:35:40;94971.84;;;2.15;85.40
10462;BME280;5278;42.656;23.374;2023-03-18T03:38:09;94964.03;;;2.05;85.58
10462;BME280;5278;42.656;23.374;2023-03-18T03:40:37;94978.84;;;2.13;85.25
10462;BME280;5278;42.656;23.374;2023-03-18T03:43:04;94980.47;;;2.14;85.89
10462;BME280;5278;42.656;23.374;2023-03-18T03:45:32;94986.53;;;2.13;85.49
10462;BME280;5278;42.656;23.374;2023-03-18T03:48:00;94977.31;;;2.10;85.48
10462;BME280;5278;42.656;23.374;2023-03-18T03:50:27;94968.16;;;2.19;85.81
10462;BME280;5278;42.656;23.374;2023-03-18T03:52:54;94967.19;;;2.20;85.01
10462;BME280;5278;42.656;23.374;2023-03-18T03:55:23;94974.19;;;2.18;84.47
10462;BME280;5278;42.656;23.374;2023-03-18T03:57:50;94972.09;;;2.12;84.82
10462;BME280;5278;42.656;23.374;2023-03-18T04:00:19;94969.41;;;2.02;85.11
10462;BME280;5278;42.656;23.374;2023-03-18T04:02:48;94964.03;;;2.05;84.85
10462;BME280;5278;42.656;23.374;2023-03-18T04:05:17;94974.41;;;2.15;84.64
10462;BME280;5278;42.656;23.374;2023-03-18T04:07:47;94984.31;;;2.20;84.03
10462;BME280;5278;42.656;23.374;2023-03-18T04:10:18;94989.78;;;2.15;84.11
10462;BME280;5278;42.656;23.374;2023-03-18T04:12:49;94986.75;;;2.10;84.03
10462;BME280;5278;42.656;23.374;2023-03-18T04:15:17;94992.47;;;2.13;83.81
10462;BME280;5278;42.656;23.374;2023-03-18T04:17:46;94999.81;;;2.18;83.47
10462;BME280;5278;42.656;23.374;2023-03-18T04:20:14;94992.00;;;2.08;83.52
10462;BME280;5278;42.656;23.374;2023-03-18T04:22:41;95002.25;;;2.20;83.87
10462;BME280;5278;42.656;23.374;2023-03-18T04:25:10;94982.19;;;1.91;83.59
10462;BME280;5278;42.656;23.374;2023-03-18T04:27:39;95012.03;;;2.03;83.31
10462;BME280;5278;42.656;23.374;2023-03-18T04:30:11;95016.78;;;1.97;83.97
10462;BME280;5278;42.656;23.374;2023-03-18T04:32:38;95016.53;;;2.00;84.48
10462;BME280;5278;42.656;23.374;2023-03-18T04:35:06;95023.88;;;2.04;84.48
10462;BME280;5278;42.656;23.374;2023-03-18T04:37:38;95019.56;;;2.05;84.72
10462;BME280;5278;42.656;23.374;2023-03-18T04:40:06;95017.72;;;2.07;84.40
10462;BME280;5278;42.656;23.374;2023-03-18T04:42:35;95041.50;;;2.09;84.56
10462;BME280;5278;42.656;23.374;2023-03-18T04:45:02;95033.56;;;2.12;84.72
10462;BME280;5278;42.656;23.374;2023-03-18T04:47:31;95006.41;;;1.98;84.55
10462;BME280;5278;42.656;23.374;2023-03-18T04:50:00;95038.00;;;2.21;84.41
10462;BME280;5278;42.656;23.374;2023-03-18T04:52:29;95036.63;;;2.28;84.77
10462;BME280;5278;42.656;23.374;2023-03-18T04:54:55;95042.09;;;2.35;85.22
10462;BME280;5278;42.656;23.374;2023-03-18T04:57:22;95042.50;;;2.52;84.64
10462;BME280;5278;42.656;23.374;2023-03-18T04:59:50;95039.44;;;2.70;84.61
10462;BME280;5278;42.656;23.374;2023-03-18T05:02:17;95030.22;;;2.89;83.07
10462;BME280;5278;42.656;23.374;2023-03-18T05:04:45;95021.69;;;3.11;82.59
10462;BME280;5278;42.656;23.374;2023-03-18T05:07:13;95026.78;;;3.33;81.63
10462;BME280;5278;42.656;23.374;2023-03-18T05:09:41;95026.38;;;3.49;80.29
10462;BME280;5278;42.656;23.374;2023-03-18T05:12:11;95025.75;;;3.68;78.83
10462;BME280;5278;42.656;23.374;2023-03-18T05:14:39;94912.34;;;3.20;78.33
10462;BME280;5278;42.656;23.374;2023-03-18T05:17:07;95014.75;;;3.98;77.77
10462;BME280;5278;42.656;23.374;2023-03-18T05:19:40;95007.16;;;4.17;76.26
10462;BME280;5278;42.656;23.374;2023-03-18T05:22:17;95012.47;;;4.46;75.52
10462;BME280;5278;42.656;23.374;2023-03-18T05:24:45;95026.31;;;4.85;73.64
10462;BME280;5278;42.656;23.374;2023-03-18T05:27:13;95010.31;;;5.21;71.53
10462;BME280;5278;42.656;23.374;2023-03-18T05:29:41;95002.22;;;5.64;68.42
10462;BME280;5278;42.656;23.374;2023-03-18T05:32:09;95004.13;;;6.00;66.71
10462;BME280;5278;42.656;23.374;2023-03-18T05:34:38;94996.88;;;6.33;62.58
10462;BME280;5278;42.656;23.374;2023-03-18T05:37:06;95001.56;;;6.66;60.76
10462;BME280;5278;42.656;23.374;2023-03-18T05:39:35;94998.25;;;7.11;59.53
10462;BME280;5278;42.656;23.374;2023-03-18T05:42:03;94984.41;;;7.47;57.29
10462;BME280;5278;42.656;23.374;2023-03-18T05:44:30;94972.38;;;7.91;54.97
10462;BME280;5278;42.656;23.374;2023-03-18T05:46:58;94999.94;;;8.44;52.94
10462;BME280;5278;42.656;23.374;2023-03-18T05:49:26;94996.53;;;8.95;51.25
10462;BME280;5278;42.656;23.374;2023-03-18T05:51:52;94997.81;;;9.41;49.49
10462;BME280;5278;42.656;23.374;2023-03-18T05:54:20;94990.44;;;10.03;47.76
10462;BME280;5278;42.656;23.374;2023-03-18T05:56:49;94994.50;;;10.70;46.29
10462;BME280;5278;42.656;23.374;2023-03-18T05:59:18;94968.56;;;11.01;45.08
10462;BME280;5278;42.656;23.374;2023-03-18T06:01:45;94997.59;;;11.51;43.67
10462;BME280;5278;42.656;23.374;2023-03-18T06:04:13;95014.75;;;11.69;43.00
10462;BME280;5278;42.656;23.374;2023-03-18T06:06:41;95002.59;;;11.92;42.35
10462;BME280;5278;42.656;23.374;2023-03-18T06:09:10;94992.78;;;12.17;41.79
10462;BME280;5278;42.656;23.374;2023-03-18T06:11:38;94993.72;;;12.76;41.21
10462;BME280;5278;42.656;23.374;2023-03-18T06:14:07;95003.31;;;13.27;40.13
10462;BME280;5278;42.656;23.374;2023-03-18T06:16:34;95004.59;;;13.67;39.77
10462;BME280;5278;42.656;23.374;2023-03-18T06:19:01;94997.22;;;14.35;38.55
10462;BME280;5278;42.656;23.374;2023-03-18T06:21:28;94998.09;;;14.63;37.69
10462;BME280;5278;42.656;23.374;2023-03-18T06:23:56;94992.16;;;14.76;37.68
10462;BME280;5278;42.656;23.374;2023-03-18T06:26:23;94993.38;;;14.80;37.70
10462;BME280;5278;42.656;23.374;2023-03-18T06:28:50;94989.88;;;15.00;37.49
10462;BME280;5278;42.656;23.374;2023-03-18T06:31:18;94990.84;;;15.27;36.82
10462;BME280;5278;42.656;23.374;2023-03-18T06:33:46;94983.97;;;15.61;36.40
10462;BME280;5278;42.656;23.374;2023-03-18T06:36:14;94971.34;;;15.77;36.06
10462;BME280;5278;42.656;23.374;2023-03-18T06:38:42;94979.69;;;16.20;34.90
10462;BME280;5278;42.656;23.374;2023-03-18T06:41:10;94958.09;;;16.51;34.61
10462;BME280;5278;42.656;23.374;2023-03-18T06:43:37;94963.38;;;16.71;34.51
10462;BME280;5278;42.656;23.374;2023-03-18T06:46:05;94961.47;;;17.17;33.53
10462;BME280;5278;42.656;23.374;2023-03-18T06:48:36;94956.53;;;17.47;32.80
10462;BME280;5278;42.656;23.374;2023-03-18T06:51:05;94961.22;;;17.83;32.19
10462;BME280;5278;42.656;23.374;2023-03-18T06:53:34;94948.19;;;18.01;32.27
10462;BME280;5278;42.656;23.374;2023-03-18T06:56:01;94970.44;;;18.62;31.49
10462;BME280;5278;42.656;23.374;2023-03-18T06:58:28;94957.56;;;18.97;30.61
10462;BME280;5278;42.656;23.374;2023-03-18T07:00:56;94954.97;;;19.51;30.03
10462;BME280;5278;42.656;23.374;2023-03-18T07:03:23;94949.59;;;20.06;28.96
10462;BME280;5278;42.656;23.374;2023-03-18T07:05:52;94948.31;;;20.38;28.78
10462;BME280;5278;42.656;23.374;2023-03-18T07:08:20;94948.25;;;20.91;41.84
10462;BME280;5278;42.656;23.374;2023-03-18T07:10:47;94970.41;;;21.88;35.73
10462;BME280;5278;42.656;23.374;2023-03-18T07:13:15;94948.75;;;22.98;30.52
10462;BME280;5278;42.656;23.374;2023-03-18T07:15:43;94942.97;;;23.83;28.00
10462;BME280;5278;42.656;23.374;2023-03-18T07:18:10;94938.28;;;24.44;26.66
10462;BME280;5278;42.656;23.374;2023-03-18T07:20:38;94942.47;;;24.99;25.45
10462;BME280;5278;42.656;23.374;2023-03-18T07:23:08;94913.25;;;25.56;24.46
10462;BME280;5278;42.656;23.374;2023-03-18T07:25:35;94916.31;;;25.85;23.43
10462;BME280;5278;42.656;23.374;2023-03-18T07:28:04;94943.84;;;26.26;23.20
10462;BME280;5278;42.656;23.374;2023-03-18T07:30:30;94946.66;;;25.89;21.99
10462;BME280;5278;42.656;23.374;2023-03-18T07:32:58;94949.91;;;25.44;22.42
10462;BME280;5278;42.656;23.374;2023-03-18T07:35:25;94956.88;;;25.08;22.81
10462;BME280;5278;42.656;23.374;2023-03-18T07:37:53;94955.94;;;24.55;23.17
10462;BME280;5278;42.656;23.374;2023-03-18T07:40:22;94951.50;;;24.12;23.74
10462;BME280;5278;42.656;23.374;2023-03-18T07:42:50;94925.59;;;23.49;24.03
10462;BME280;5278;42.656;23.374;2023-03-18T07:45:19;94960.88;;;22.94;25.23
10462;BME280;5278;42.656;23.374;2023-03-18T07:47:46;94960.91;;;22.32;25.83
10462;BME280;5278;42.656;23.374;2023-03-18T07:50:14;94935.16;;;22.45;25.77
10462;BME280;5278;42.656;23.374;2023-03-18T07:52:41;94925.84;;;23.09;24.96
10462;BME280;5278;42.656;23.374;2023-03-18T07:55:09;94944.59;;;24.11;23.89
10462;BME280;5278;42.656;23.374;2023-03-18T07:57:39;94948.44;;;24.84;23.20
10462;BME280;5278;42.656;23.374;2023-03-18T08:00:08;94952.81;;;25.42;22.74
10462;BME280;5278;42.656;23.374;2023-03-18T08:02:37;94954.16;;;26.02;21.78
10462;BME280;5278;42.656;23.374;2023-03-18T08:05:06;94868.41;;;26.00;21.23
10462;BME280;5278;42.656;23.374;2023-03-18T08:07:33;94947.88;;;26.38;21.39
10462;BME280;5278;42.656;23.374;2023-03-18T08:10:00;94937.50;;;26.87;21.01
10462;BME280;5278;42.656;23.374;2023-03-18T08:12:27;94940.41;;;27.21;20.56
10462;BME280;5278;42.656;23.374;2023-03-18T08:14:55;94946.75;;;27.35;20.48
10462;BME280;5278;42.656;23.374;2023-03-18T08:17:24;94943.13;;;27.91;19.91
10462;BME280;5278;42.656;23.374;2023-03-18T08:19:51;94943.16;;;27.86;19.42
10462;BME280;5278;42.656;23.374;2023-03-18T08:22:18;94954.53;;;28.16;18.93
10462;BME280;5278;42.656;23.374;2023-03-18T08:24:46;94947.75;;;28.34;19.23
10462;BME280;5278;42.656;23.374;2023-03-18T08:27:13;94951.50;;;28.67;19.56
10462;BME280;5278;42.656;23.374;2023-03-18T08:29:41;94949.25;;;28.84;18.84
10462;BME280;5278;42.656;23.374;2023-03-18T08:32:11;94951.91;;;29.18;18.50
10462;BME280;5278;42.656;23.374;2023-03-18T08:34:38;94943.13;;;29.13;18.48
10462;BME280;5278;42.656;23.374;2023-03-18T08:37:06;94944.78;;;28.75;18.59
10462;BME280;5278;42.656;23.374;2023-03-18T08:39:34;94946.69;;;28.30;18.83
10462;BME280;5278;42.656;23.374;2023-03-18T08:42:02;94948.25;;;27.82;19.83
10462;BME280;5278;42.656;23.374;2023-03-18T08:44:29;94943.19;;;28.30;19.41
10462;BME280;5278;42.656;23.374;2023-03-18T08:46:57;94943.38;;;28.48;19.18
10462;BME280;5278;42.656;23.374;2023-03-18T08:49:26;94942.94;;;28.65;18.74
10462;BME280;5278;42.656;23.374;2023-03-18T08:51:53;94907.19;;;28.56;19.24
10462;BME280;5278;42.656;23.374;2023-03-18T08:54:21;94940.72;;;29.11;18.82
10462;BME280;5278;42.656;23.374;2023-03-18T08:56:47;94942.56;;;29.68;18.14
10462;BME280;5278;42.656;23.374;2023-03-18T08:59:14;94940.44;;;29.89;17.59
10462;BME280;5278;42.656;23.374;2023-03-18T09:01:43;94952.44;;;30.34;17.73
10462;BME280;5278;42.656;23.374;2023-03-18T09:04:11;94945.38;;;30.62;17.11
10462;BME280;5278;42.656;23.374;2023-03-18T09:06:41;94948.91;;;30.39;16.65
10462;BME280;5278;42.656;23.374;2023-03-18T09:09:08;94944.19;;;30.68;16.82
10462;BME280;5278;42.656;23.374;2023-03-18T09:11:36;94950.00;;;30.89;16.46
10462;BME280;5278;42.656;23.374;2023-03-18T09:14:03;94946.59;;;30.51;16.59
10462;BME280;5278;42.656;23.374;2023-03-18T09:16:30;94948.81;;;30.81;17.08
10462;BME280;5278;42.656;23.374;2023-03-18T09:18:58;94940.91;;;31.49;16.39
10462;BME280;5278;42.656;23.374;2023-03-18T09:21:25;94949.59;;;31.46;16.02
10462;BME280;5278;42.656;23.374;2023-03-18T09:23:54;94951.22;;;30.83;16.12
10462;BME280;5278;42.656;23.374;2023-03-18T09:26:22;94952.03;;;31.15;16.04
10462;BME280;5278;42.656;23.374;2023-03-18T09:28:49;94955.44;;;31.35;15.60
10462;BME280;5278;42.656;23.374;2023-03-18T09:31:16;94923.59;;;31.96;14.63
10462;BME280;5278;42.656;23.374;2023-03-18T09:33:44;94950.28;;;32.07;13.93
10462;BME280;5278;42.656;23.374;2023-03-18T09:36:12;94952.72;;;31.21;14.88
10462;BME280;5278;42.656;23.374;2023-03-18T09:38:41;94949.06;;;31.31;15.44
10462;BME280;5278;42.656;23.374;2023-03-18T09:41:19;94960.66;;;30.61;15.21
10462;BME280;5278;42.656;23.374;2023-03-18T09:43:56;94942.38;;;29.60;16.40
10462;BME280;5278;42.656;23.374;2023-03-18T09:46:31;94949.72;;;28.91;16.23
10462;BME280;5278;42.656;23.374;2023-03-18T09:49:20;94942.47;;;27.55;17.61
10462;BME280;5278;42.656;23.374;2023-03-18T09:51:57;94947.13;;;26.98;18.07
10462;BME280;5278;42.656;23.374;2023-03-18T09:54:34;94945.47;;;27.18;17.97
10462;BME280;5278;42.656;23.374;2023-03-18T09:57:12;94946.31;;;27.03;17.61
10462;BME280;5278;42.656;23.374;2023-03-18T09:59:43;94952.41;;;27.29;17.85
10462;BME280;5278;42.656;23.374;2023-03-18T10:02:18;94944.84;;;27.61;17.50
10462;BME280;5278;42.656;23.374;2023-03-18T10:04:51;94940.66;;;28.04;17.67
10462;BME280;5278;42.656;23.374;2023-03-18T10:07:23;94943.16;;;28.79;16.26
10462;BME280;5278;42.656;23.374;2023-03-18T10:09:53;94958.53;;;28.97;15.77
10462;BME280;5278;42.656;23.374;2023-03-18T10:12:29;94927.81;;;28.50;16.52
10462;BME280;5278;42.656;23.374;2023-03-18T10:15:05;94952.59;;;27.63;16.69
10462;BME280;5278;42.656;23.374;2023-03-18T10:17:38;94955.50;;;26.04;17.12
10462;BME280;5278;42.656;23.374;2023-03-18T10:20:16;94957.22;;;25.63;17.88
10462;BME280;5278;42.656;23.374;2023-03-18T10:23:05;94949.81;;;25.76;17.05
10462;BME280;5278;42.656;23.374;2023-03-18T10:25:38;94916.63;;;26.19;17.17
10462;BME280;5278;42.656;23.374;2023-03-18T10:28:39;94947.50;;;25.94;16.96
10462;BME280;5278;42.656;23.374;2023-03-18T10:31:26;94941.44;;;26.19;16.64
10462;BME280;5278;42.656;23.374;2023-03-18T10:34:00;94940.75;;;25.77;17.44
10462;BME280;5278;42.656;23.374;2023-03-18T10:36:33;94947.53;;;26.14;16.84
10462;BME280;5278;42.656;23.374;2023-03-18T10:39:12;94948.13;;;26.32;16.36
10462;BME280;5278;42.656;23.374;2023-03-18T10:41:39;94944.97;;;26.40;16.44
10462;BME280;5278;42.656;23.374;2023-03-18T10:44:17;94942.59;;;26.99;16.45
10462;BME280;5278;42.656;23.374;2023-03-18T10:46:47;94944.19;;;26.80;15.83
10462;BME280;5278;42.656;23.374;2023-03-18T10:49:22;94943.38;;;26.69;16.07
10462;BME280;5278;42.656;23.374;2023-03-18T10:51:54;94932.41;;;26.71;15.73
10462;BME280;5278;42.656;23.374;2023-03-18T10:54:26;94929.19;;;27.24;16.02
10462;BME280;5278;42.656;23.374;2023-03-18T10:56:57;94929.44;;;28.02;15.49
10462;BME280;5278;42.656;23.374;2023-03-18T10:59:27;94916.47;;;28.68;14.81
10462;BME280;5278;42.656;23.374;2023-03-18T11:01:58;94926.97;;;29.23;15.12
10462;BME280;5278;42.656;23.374;2023-03-18T11:04:28;94920.69;;;26.82;15.67
10462;BME280;5278;42.656;23.374;2023-03-18T11:06:59;94926.47;;;23.81;17.51
10462;BME280;5278;42.656;23.374;2023-03-18T11:09:30;94933.47;;;21.94;19.16
10462;BME280;5278;42.656;23.374;2023-03-18T11:12:02;94935.72;;;20.63;20.35
10462;BME280;5278;42.656;23.374;2023-03-18T11:14:31;94943.53;;;18.60;22.27
10462;BME280;5278;42.656;23.374;2023-03-18T11:17:00;94943.34;;;17.54;23.45
10462;BME280;5278;42.656;23.374;2023-03-18T11:19:30;94963.13;;;16.20;24.76
10462;BME280;5278;42.656;23.374;2023-03-18T11:22:17;94948.13;;;15.68;26.22
10462;BME280;5278;42.656;23.374;2023-03-18T11:24:45;94947.91;;;15.63;26.44
10462;BME280;5278;42.656;23.374;2023-03-18T11:27:35;94944.00;;;17.43;25.00
10462;BME280;5278;42.656;23.374;2023-03-18T11:30:11;94947.63;;;19.17;23.07
10462;BME280;5278;42.656;23.374;2023-03-18T11:32:50;94929.16;;;20.43;21.49
10462;BME280;5278;42.656;23.374;2023-03-18T11:35:19;94919.34;;;21.48;20.25
10462;BME280;5278;42.656;23.374;2023-03-18T11:37:47;94915.81;;;22.27;18.94
10462;BME280;5278;42.656;23.374;2023-03-18T11:40:19;94919.31;;;21.88;19.93
10462;BME280;5278;42.656;23.374;2023-03-18T11:42:53;94935.25;;;19.54;22.66
10462;BME280;5278;42.656;23.374;2023-03-18T11:45:40;94926.91;;;18.34;24.22
10462;BME280;5278;42.656;23.374;2023-03-18T11:48:15;94928.09;;;17.31;25.30
10462;BME280;5278;42.656;23.374;2023-03-18T11:50:56;94922.31;;;17.67;25.58
10462;BME280;5278;42.656;23.374;2023-03-18T11:53:32;94927.00;;;19.32;23.83
10462;BME280;5278;42.656;23.374;2023-03-18T11:56:10;94924.72;;;19.35;22.57
10462;BME280;5278;42.656;23.374;2023-03-18T11:58:50;94941.13;;;17.51;24.48
10462;BME280;5278;42.656;23.374;2023-03-18T12:01:29;94939.75;;;16.58;26.04
10462;BME280;5278;42.656;23.374;2023-03-18T12:04:29;94924.81;;;17.87;25.33
10462;BME280;5278;42.656;23.374;2023-03-18T12:07:17;94929.03;;;19.48;23.83
10462;BME280;5278;42.656;23.374;2023-03-18T12:09:51;94921.50;;;20.65;22.81
10462;BME280;5278;42.656;23.374;2023-03-18T12:12:36;94919.38;;;21.13;22.48
10462;BME280;5278;42.656;23.374;2023-03-18T12:15:16;94917.44;;;21.09;22.63
10462;BME280;5278;42.656;23.374;2023-03-18T12:17:56;94906.81;;;21.83;22.64
10462;BME280;5278;42.656;23.374;2023-03-18T12:20:39;94920.34;;;21.19;22.20
10462;BME280;5278;42.656;23.374;2023-03-18T12:23:24;94937.22;;;19.40;23.44
10462;BME280;5278;42.656;23.374;2023-03-18T12:26:01;94925.50;;;18.32;24.40
10462;BME280;5278;42.656;23.374;2023-03-18T12:28:50;94930.28;;;17.34;25.24
10462;BME280;5278;42.656;23.374;2023-03-18T12:31:38;94932.06;;;16.56;26.33
10462;BME280;5278;42.656;23.374;2023-03-18T12:34:21;94930.66;;;16.14;27.12
10462;BME280;5278;42.656;23.374;2023-03-18T12:37:10;94929.06;;;16.53;27.16
10462;BME280;5278;42.656;23.374;2023-03-18T12:40:00;94916.59;;;17.26;26.29
10462;BME280;5278;42.656;23.374;2023-03-18T12:42:53;94906.59;;;16.90;27.39
10462;BME280;5278;42.656;23.374;2023-03-18T12:45:33;94921.00;;;16.41;28.02
10462;BME280;5278;42.656;23.374;2023-03-18T12:48:07;94927.03;;;15.35;27.60
10462;BME280;5278;42.656;23.374;2023-03-18T12:50:45;94928.78;;;14.74;28.53
10462;BME280;5278;42.656;23.374;2023-03-18T12:53:18;94933.53;;;14.14;29.69
10462;BME280;5278;42.656;23.374;2023-03-18T12:55:53;94941.19;;;13.73;30.26
10462;BME280;5278;42.656;23.374;2023-03-18T12:58:23;94945.03;;;13.56;30.79
10462;BME280;5278;42.656;23.374;2023-03-18T13:01:12;94935.09;;;13.66;31.11
10462;BME280;5278;42.656;23.374;2023-03-18T13:03:43;94923.28;;;13.70;30.94
10462;BME280;5278;42.656;23.374;2023-03-18T13:06:21;94917.94;;;13.78;30.73
10462;BME280;5278;42.656;23.374;2023-03-18T13:08:59;94919.22;;;13.47;30.04
10462;BME280;5278;42.656;23.374;2023-03-18T13:12:06;94930.22;;;13.42;29.36
10462;BME280;5278;42.656;23.374;2023-03-18T13:14:45;94928.25;;;13.44;29.50
10462;BME280;5278;42.656;23.374;2023-03-18T13:17:16;94927.13;;;13.53;30.23
10462;BME280;5278;42.656;23.374;2023-03-18T13:19:46;94929.41;;;13.42;28.87
10462;BME280;5278;42.656;23.374;2023-03-18T13:22:51;94949.59;;;13.04;29.60
10462;BME280;5278;42.656;23.374;2023-03-18T13:25:29;94943.66;;;12.80;30.08